Time;durP1;ratioP1;P1;durP2;ratioP2;P2;SDS_P1;SDS_P2;PMS_P1;PMS_P2;Temp;Humidity;BMP_temperature;BMP_pressure;BME280_temperature;BME280_humidity;BME280_pressure;Samples;Min_cycle;Max_cycle;Signal;HPM_P1;HPM_P2
2022/11/21 00:00:45;;;;;;;7.93;4.20;;;;;;;;;;6242123;23;20171;-90
2022/11/21 00:03:51;;;;;;;6.30;3.60;;;;;;;;;;6243078;23;20209;-90
2022/11/21 00:06:56;;;;;;;7.80;3.70;;;;;;;;;;6242982;23;20158;-88
2022/11/21 00:10:02;;;;;;;7.37;3.50;;;;;;;;;;6245451;23;20216;-89
2022/11/21 00:13:08;;;;;;;6.03;3.00;;;;;;;;;;6244267;23;20194;-89
2022/11/21 00:16:16;;;;;;;6.77;2.60;;;;;;;;;;6244765;23;20243;-90
2022/11/21 00:19:26;;;;;;;6.40;2.03;;;;;;;;;;6254531;22;20183;-89
2022/11/21 00:22:32;;;;;;;5.63;2.80;;;;;;;;;;6248513;22;20220;-89
2022/11/21 00:25:38;;;;;;;9.77;2.83;;;;;;;;;;6247996;23;20194;-92
2022/11/21 00:28:44;;;;;;;5.17;2.57;;;;;;;;;;6243458;23;20481;-91
2022/11/21 00:31:50;;;;;;;6.53;2.77;;;;;;;;;;6242520;23;20230;-90
2022/11/21 00:34:55;;;;;;;4.80;2.43;;;;;;;;;;6242087;22;20247;-90
2022/11/21 00:38:00;;;;;;;7.30;2.30;;;;;;;;;;6241511;23;20250;-91
2022/11/21 00:41:06;;;;;;;4.97;2.67;;;;;;;;;;6242373;23;20194;-88
2022/11/21 00:44:11;;;;;;;3.57;2.27;;;;;;;;;;6243265;23;20216;-91
2022/11/21 00:47:22;;;;;;;4.43;2.00;;;;;;;;;;6244106;23;20182;-91
2022/11/21 00:50:28;;;;;;;5.03;2.50;;;;;;;;;;6249128;23;20167;-90
2022/11/21 00:53:33;;;;;;;3.33;1.60;;;;;;;;;;6246354;22;20166;-90
2022/11/21 00:56:38;;;;;;;2.70;1.30;;;;;;;;;;6247260;22;20233;-90
2022/11/21 00:59:43;;;;;;;3.57;1.40;;;;;;;;;;6248368;23;20167;-91
2022/11/21 01:02:50;;;;;;;4.40;2.43;;;;;;;;;;6248530;23;20563;-89
2022/11/21 01:06:01;;;;;;;2.83;1.90;;;;;;;;;;6246489;23;20678;-90
2022/11/21 01:09:07;;;;;;;3.93;2.17;;;;;;;;;;6249026;23;20190;-92
2022/11/21 01:12:12;;;;;;;2.97;1.70;;;;;;;;;;6247569;23;20167;-89
2022/11/21 01:15:17;;;;;;;2.63;1.53;;;;;;;;;;6247267;23;20212;-92
2022/11/21 01:18:24;;;;;;;4.03;1.87;;;;;;;;;;6246550;23;20190;-91
2022/11/21 01:21:31;;;;;;;4.20;2.07;;;;;;;;;;6244252;23;20154;-90
2022/11/21 01:24:36;;;;;;;4.93;1.47;;;;;;;;;;6245786;22;20290;-91
2022/11/21 01:27:41;;;;;;;2.40;1.90;;;;;;;;;;6245240;22;20221;-89
2022/11/21 01:30:47;;;;;;;3.77;2.03;;;;;;;;;;6246122;23;20158;-91
2022/11/21 01:33:56;;;;;;;2.20;1.30;;;;;;;;;;6244878;23;20170;-92
2022/11/21 01:37:01;;;;;;;1.60;1.13;;;;;;;;;;6245014;23;20181;-91
2022/11/21 01:40:07;;;;;;;2.30;1.00;;;;;;;;;;6247006;22;20174;-93
2022/11/21 01:43:13;;;;;;;1.27;0.87;;;;;;;;;;6245455;23;20170;-89
2022/11/21 01:46:19;;;;;;;2.50;1.53;;;;;;;;;;6243857;23;20189;-92
2022/11/21 01:49:28;;;;;;;1.27;0.97;;;;;;;;;;6245584;23;20222;-92
2022/11/21 01:52:33;;;;;;;2.50;1.20;;;;;;;;;;6245476;23;20175;-93
2022/11/21 01:55:42;;;;;;;1.03;0.80;;;;;;;;;;6244378;22;20169;-88
2022/11/21 01:58:48;;;;;;;1.40;1.07;;;;;;;;;;6245544;23;20254;-90
2022/11/21 02:01:54;;;;;;;1.70;1.13;;;;;;;;;;6244096;23;20163;-90
2022/11/21 02:05:02;;;;;;;1.83;1.20;;;;;;;;;;6244125;23;20234;-92
2022/11/21 02:08:10;;;;;;;1.27;0.90;;;;;;;;;;6241882;23;20173;-89
2022/11/21 02:11:18;;;;;;;1.07;0.90;;;;;;;;;;6239707;23;20231;-91
2022/11/21 02:14:23;;;;;;;1.30;1.00;;;;;;;;;;6240353;23;20201;-92
2022/11/21 02:17:29;;;;;;;1.03;0.90;;;;;;;;;;6241386;23;20174;-89
2022/11/21 02:20:37;;;;;;;1.60;0.90;;;;;;;;;;6240269;23;20175;-91
2022/11/21 02:23:44;;;;;;;1.00;0.90;;;;;;;;;;6239369;23;20194;-90
2022/11/21 02:26:51;;;;;;;2.37;1.07;;;;;;;;;;6240723;23;20170;-92
2022/11/21 02:29:56;;;;;;;1.77;1.00;;;;;;;;;;6240838;23;20150;-90
2022/11/21 02:33:01;;;;;;;1.17;0.90;;;;;;;;;;6241942;23;20209;-91
2022/11/21 02:36:21;;;;;;;2.03;0.90;;;;;;;;;;6240940;23;20241;-91
2022/11/21 02:39:27;;;;;;;0.60;0.60;;;;;;;;;;6239683;23;20214;-90
2022/11/21 02:42:37;;;;;;;1.50;0.80;;;;;;;;;;6238316;23;20215;-91
2022/11/21 02:45:43;;;;;;;1.60;1.00;;;;;;;;;;6238985;23;20195;-90
2022/11/21 02:48:48;;;;;;;1.10;0.90;;;;;;;;;;6240979;23;20182;-89
2022/11/21 02:51:53;;;;;;;0.87;0.73;;;;;;;;;;6240202;23;20198;-92
2022/11/21 02:54:58;;;;;;;2.80;0.80;;;;;;;;;;6258227;23;20201;-90
2022/11/21 02:58:05;;;;;;;1.40;1.00;;;;;;;;;;6240601;23;20218;-90
2022/11/21 03:01:10;;;;;;;1.43;0.90;;;;;;;;;;6240275;23;20170;-90
2022/11/21 03:04:15;;;;;;;2.00;1.10;;;;;;;;;;6239262;23;20177;-90
2022/11/21 03:07:23;;;;;;;1.63;1.00;;;;;;;;;;6239929;23;20205;-90
2022/11/21 03:10:28;;;;;;;2.03;1.00;;;;;;;;;;6239594;23;20170;-90
2022/11/21 03:13:34;;;;;;;3.67;1.60;;;;;;;;;;6238235;23;20175;-88
2022/11/21 03:16:40;;;;;;;3.43;1.47;;;;;;;;;;6238301;23;20303;-92
2022/11/21 03:19:45;;;;;;;4.67;1.43;;;;;;;;;;6238639;22;20527;-89
2022/11/21 03:22:52;;;;;;;2.20;1.20;;;;;;;;;;6239018;23;20166;-90
2022/11/21 03:25:57;;;;;;;1.50;1.00;;;;;;;;;;6239223;23;20179;-89
2022/11/21 03:29:04;;;;;;;4.23;1.90;;;;;;;;;;6239481;23;20166;-91
2022/11/21 03:32:10;;;;;;;2.90;1.00;;;;;;;;;;6213314;23;20214;-90
2022/11/21 03:35:16;;;;;;;7.40;2.17;;;;;;;;;;6239706;23;20170;-91
2022/11/21 03:38:21;;;;;;;5.20;1.53;;;;;;;;;;6239139;23;20194;-91
2022/11/21 03:41:29;;;;;;;2.93;1.60;;;;;;;;;;6238867;23;20622;-89
2022/11/21 03:44:36;;;;;;;5.63;2.30;;;;;;;;;;6240112;23;20166;-90
2022/11/21 03:47:41;;;;;;;7.70;3.50;;;;;;;;;;6258138;22;20652;-90
2022/11/21 03:50:46;;;;;;;7.30;2.70;;;;;;;;;;6224303;22;20190;-90
2022/11/21 03:53:52;;;;;;;4.93;2.23;;;;;;;;;;6214620;23;20206;-90
2022/11/21 03:56:56;;;;;;;5.00;2.10;;;;;;;;;;5997154;23;20192;-89
2022/11/21 11:47:34;;;;;;;0.70;0.70;;;;;;;;;;6228442;23;20593;-89
2022/11/21 11:50:42;;;;;;;4.35;1.02;;;;;;;;;;6229447;23;20157;-90
2022/11/21 11:53:49;;;;;;;3.00;1.00;;;;;;;;;;6230924;23;20156;-91
2022/11/21 11:56:55;;;;;;;2.67;1.10;;;;;;;;;;6230360;23;20171;-90
2022/11/21 12:00:07;;;;;;;3.80;1.20;;;;;;;;;;6232435;23;20215;-91
2022/11/21 12:03:19;;;;;;;3.15;1.05;;;;;;;;;;6229286;23;20194;-89
2022/11/21 12:06:26;;;;;;;2.22;1.20;;;;;;;;;;6229991;23;20167;-89
2022/11/21 12:09:36;;;;;;;3.88;1.02;;;;;;;;;;6227467;23;20171;-85
2022/11/21 12:12:43;;;;;;;2.38;0.80;;;;;;;;;;6228715;23;20211;-91
2022/11/21 12:15:52;;;;;;;4.00;1.20;;;;;;;;;;6230216;23;20231;-87
2022/11/21 12:19:01;;;;;;;5.18;1.08;;;;;;;;;;6230828;23;20171;-88
2022/11/21 12:22:11;;;;;;;4.13;0.97;;;;;;;;;;6228750;23;20266;-89
2022/11/21 12:25:17;;;;;;;2.22;0.95;;;;;;;;;;6234283;23;20174;-90
2022/11/21 12:28:25;;;;;;;2.35;1.00;;;;;;;;;;6233503;23;20190;-90
2022/11/21 12:31:36;;;;;;;2.72;1.00;;;;;;;;;;6233950;23;20243;-90
2022/11/21 12:34:54;;;;;;;4.97;1.42;;;;;;;;;;6233033;23;20171;-90
2022/11/21 12:38:06;;;;;;;2.83;0.80;;;;;;;;;;6232463;23;20205;-90
2022/11/21 12:44:55;;;;;;;2.58;1.00;;;;;;;;;;6232122;23;20194;-89
2022/11/21 12:55:30;;;;;;;4.70;1.13;;;;;;;;;;6234191;23;20154;-90
2022/11/21 12:58:39;;;;;;;1.95;0.90;;;;;;;;;;6234681;23;20263;-90
2022/11/21 13:01:48;;;;;;;5.50;1.77;;;;;;;;;;6236263;23;20277;-90
2022/11/21 13:04:55;;;;;;;5.68;1.65;;;;;;;;;;6236448;23;20218;-88
2022/11/21 13:08:05;;;;;;;2.03;1.02;;;;;;;;;;6233763;23;20155;-89
2022/11/21 13:14:42;;;;;;;3.00;1.17;;;;;;;;;;6236230;23;20194;-93
2022/11/21 13:17:52;;;;;;;2.00;1.15;;;;;;;;;;6235061;23;20194;-92
2022/11/21 13:21:02;;;;;;;8.25;3.50;;;;;;;;;;6233585;23;20176;-89
2022/11/21 13:24:10;;;;;;;3.47;1.60;;;;;;;;;;6235726;23;20194;-91
2022/11/21 13:27:29;;;;;;;5.93;2.08;;;;;;;;;;6251212;23;20163;-89
2022/11/21 13:30:35;;;;;;;4.03;1.23;;;;;;;;;;6234658;23;20170;-88
2022/11/21 16:44:49;;;;;;;10.50;5.33;;;;;;;;;;6144873;23;20179;-89
2022/11/21 16:47:54;;;;;;;9.90;5.23;;;;;;;;;;6130500;23;20265;-92
2022/11/21 16:51:10;;;;;;;11.97;5.30;;;;;;;;;;6048479;23;20196;-90
2022/11/21 16:54:19;;;;;;;15.03;6.50;;;;;;;;;;5881369;24;20231;-89
2022/11/21 16:57:35;;;;;;;16.40;7.10;;;;;;;;;;5568595;25;20211;-88
2022/11/21 17:01:01;;;;;;;15.63;6.43;;;;;;;;;;5508512;25;20200;-89
2022/11/21 17:04:10;;;;;;;19.33;5.93;;;;;;;;;;5500013;25;20233;-85
2022/11/21 17:07:17;;;;;;;16.90;7.13;;;;;;;;;;5501295;26;20190;-88
2022/11/21 17:10:29;;;;;;;15.50;6.53;;;;;;;;;;5503904;25;20169;-89
2022/11/21 17:17:24;;;;;;;18.17;8.70;;;;;;;;;;5504939;25;20697;-90
2022/11/21 17:20:47;;;;;;;17.30;6.33;;;;;;;;;;5503772;26;20181;-87
2022/11/21 17:27:17;;;;;;;21.07;7.50;;;;;;;;;;5503893;26;20202;-91
2022/11/21 17:30:26;;;;;;;15.60;6.80;;;;;;;;;;5506730;25;20227;-91
2022/11/21 17:33:34;;;;;;;11.43;6.17;;;;;;;;;;5505893;26;20239;-89
2022/11/21 17:36:49;;;;;;;15.37;6.23;;;;;;;;;;5505369;26;20218;-92
2022/11/21 17:39:55;;;;;;;16.60;7.53;;;;;;;;;;5503363;26;20190;-92
2022/11/21 17:43:02;;;;;;;20.43;8.03;;;;;;;;;;5501370;26;20220;-90
2022/11/21 17:46:09;;;;;;;16.90;7.03;;;;;;;;;;5502483;26;20198;-90
2022/11/21 17:49:18;;;;;;;17.60;7.47;;;;;;;;;;5501349;25;20183;-90
2022/11/21 17:52:27;;;;;;;16.47;8.40;;;;;;;;;;5504060;26;20190;-92
2022/11/21 17:55:42;;;;;;;21.13;8.27;;;;;;;;;;5503858;26;20174;-91
2022/11/21 17:58:47;;;;;;;16.20;7.87;;;;;;;;;;5638929;24;20224;-89
2022/11/21 18:01:54;;;;;;;15.57;6.70;;;;;;;;;;5817724;24;20244;-90
2022/11/21 18:05:02;;;;;;;13.87;5.87;;;;;;;;;;5812650;24;20407;-89
2022/11/21 18:08:13;;;;;;;12.77;6.17;;;;;;;;;;5826250;24;20186;-90
2022/11/21 18:11:23;;;;;;;27.83;11.73;;;;;;;;;;5811599;24;20646;-93
2022/11/21 18:14:29;;;;;;;18.20;6.33;;;;;;;;;;5827503;24;20232;-90
2022/11/21 18:17:40;;;;;;;15.87;7.07;;;;;;;;;;5812845;24;20182;-90
2022/11/21 18:20:46;;;;;;;19.50;8.03;;;;;;;;;;5810997;24;20778;-89
2022/11/21 18:23:55;;;;;;;15.30;7.57;;;;;;;;;;5809579;24;20189;-88
2022/11/21 18:27:00;;;;;;;16.53;8.80;;;;;;;;;;5824817;24;20180;-89
2022/11/21 18:30:06;;;;;;;19.07;8.53;;;;;;;;;;5824372;24;20214;-93
2022/11/21 18:33:12;;;;;;;15.53;8.27;;;;;;;;;;5810377;24;20230;-90
2022/11/21 18:36:18;;;;;;;13.53;6.57;;;;;;;;;;5810893;24;20193;-91
2022/11/21 18:39:26;;;;;;;18.87;8.60;;;;;;;;;;5810194;24;20212;-90
2022/11/21 18:42:34;;;;;;;29.73;10.83;;;;;;;;;;5810638;24;20243;-90
2022/11/21 18:45:43;;;;;;;26.00;10.33;;;;;;;;;;5813072;24;20189;-89
2022/11/21 18:48:52;;;;;;;12.87;5.83;;;;;;;;;;5829947;24;20181;-88
2022/11/21 18:52:10;;;;;;;13.27;5.90;;;;;;;;;;5830778;24;20260;-88
2022/11/21 18:55:21;;;;;;;11.60;6.23;;;;;;;;;;5811461;24;20215;-88
2022/11/21 18:58:27;;;;;;;18.30;9.50;;;;;;;;;;5856459;24;20201;-91
2022/11/21 19:01:33;;;;;;;16.90;7.60;;;;;;;;;;5982507;24;20249;-91
2022/11/21 19:04:38;;;;;;;23.23;10.90;;;;;;;;;;6016322;23;20200;-90
2022/11/21 19:07:44;;;;;;;27.43;10.83;;;;;;;;;;6016216;23;20183;-88
2022/11/21 19:10:52;;;;;;;18.50;8.60;;;;;;;;;;6017144;23;20176;-90
2022/11/21 19:13:59;;;;;;;18.60;7.13;;;;;;;;;;6017331;23;20165;-88
2022/11/21 19:17:07;;;;;;;20.27;7.77;;;;;;;;;;6016962;23;20177;-90
2022/11/21 19:20:12;;;;;;;14.47;6.37;;;;;;;;;;6015144;23;20181;-89
2022/11/21 19:23:21;;;;;;;13.43;7.57;;;;;;;;;;6017334;23;20180;-88
2022/11/21 19:26:29;;;;;;;13.10;6.43;;;;;;;;;;6014266;23;20184;-88
2022/11/21 19:29:35;;;;;;;19.47;6.80;;;;;;;;;;6016517;23;20181;-89
2022/11/21 19:32:41;;;;;;;15.03;6.17;;;;;;;;;;6018825;23;20171;-90
2022/11/21 19:35:47;;;;;;;14.77;8.23;;;;;;;;;;6001053;24;20225;-91
2022/11/21 19:38:53;;;;;;;12.57;6.77;;;;;;;;;;5985668;24;20197;-90
2022/11/21 19:42:02;;;;;;;11.50;6.07;;;;;;;;;;5984743;24;20176;-93
2022/11/21 19:45:11;;;;;;;12.47;6.23;;;;;;;;;;6016476;23;20246;-88
2022/11/21 19:48:16;;;;;;;19.70;9.33;;;;;;;;;;6016433;23;20176;-89
2022/11/21 19:51:23;;;;;;;14.40;7.10;;;;;;;;;;6000507;24;20229;-90
2022/11/21 19:54:29;;;;;;;11.90;6.57;;;;;;;;;;6017035;23;20178;-92
2022/11/21 23:11:52;;;;;;;67.40;8.17;;;;;;;;;;6186798;22;1324528;-88
2022/11/21 23:14:57;;;;;;;106.63;9.83;;;;;;;;;;6183034;23;20203;-90
2022/11/21 23:18:02;;;;;;;88.53;9.83;;;;;;;;;;6182064;23;20211;-90
2022/11/21 23:21:08;;;;;;;46.23;7.90;;;;;;;;;;6182939;23;20175;-92
2022/11/21 23:24:13;;;;;;;56.33;8.13;;;;;;;;;;6183501;23;20168;-91
2022/11/21 23:27:20;;;;;;;83.63;10.97;;;;;;;;;;6183096;23;20171;-92
2022/11/21 23:30:25;;;;;;;25.53;9.80;;;;;;;;;;6183119;23;20212;-90
2022/11/21 23:33:30;;;;;;;34.27;9.97;;;;;;;;;;6181392;23;20163;-90
2022/11/21 23:36:35;;;;;;;35.97;8.83;;;;;;;;;;6183713;23;20156;-90
2022/11/21 23:39:41;;;;;;;29.47;9.00;;;;;;;;;;6181672;23;20155;-90
2022/11/21 23:42:49;;;;;;;25.73;9.03;;;;;;;;;;6182370;23;20172;-92
2022/11/21 23:45:54;;;;;;;31.43;12.23;;;;;;;;;;6181104;23;20607;-90
2022/11/21 23:49:00;;;;;;;41.03;11.47;;;;;;;;;;6183217;23;20198;-93
2022/11/21 23:52:05;;;;;;;18.47;8.73;;;;;;;;;;6180932;23;20172;-88
2022/11/21 23:55:11;;;;;;;22.93;9.07;;;;;;;;;;6182711;23;20159;-91
2022/11/21 23:58:18;;;;;;;16.70;7.30;;;;;;;;;;6181719;23;20255;-90
